Погода Итайтингана 2 недели

Сеара, Бразилия

18 - 31 июля
  • 18июля
    Сегодня
    +24°
    +31°
    Небольшая облачность
    ВремяПогодаТемператураВлажностьДавлениеВетер, м/сВероятность осадков
    00:00Ясно и безоблачно+27°C83 %755 мм4.9 м/с5 %
    03:00Ясно и безоблачно+26°C80 %755 мм4.3 м/с2 %
    06:00Ясно и безоблачно+24°C79 %755 мм4.3 м/с2 %
    09:00Ясно и безоблачно+28°C64 %757 мм7.3 м/с5 %
    12:00Небольшая облачность+31°C45 %755 мм7.6 м/с5 %
    15:00Небольшая облачность+29°C55 %754 мм7.3 м/с4 %
    18:00Ясно и безоблачно+28°C73 %755 мм5.4 м/с5 %
    21:00Ясно и безоблачно+27°C87 %756 мм4.0 м/с3 %
  • 19июля
    Пятница
    +23°
    +32°
    Практически безоблачно
    ВремяПогодаТемператураВлажностьДавлениеВетер, м/сВероятность осадков
    00:00Практически безоблачно+27°C88 %756 мм4.3 м/с20 %
    03:00Практически безоблачно+26°C88 %755 мм4.3 м/с33 %
    06:00Ясно и безоблачно+24°C85 %756 мм4.6 м/с11 %
    09:00Ясно и безоблачно+28°C63 %757 мм7.6 м/с5 %
    12:00Практически безоблачно+31°C47 %755 мм7.7 м/с5 %
    15:00Практически безоблачно+30°C53 %754 мм7.8 м/с2 %
    18:00Ясно и безоблачно+27°C78 %755 мм5.4 м/с4 %
    21:00Ясно и безоблачно+27°C86 %756 мм4.3 м/с11 %
  • 20июля
    Суббота
    +23°
    +32°
    Практически безоблачно
    ВремяПогодаТемператураВлажностьДавлениеВетер, м/сВероятность осадков
    00:00Практически безоблачно+27°C86 %756 мм5.4 м/с36 %
    03:00Ясно и безоблачно+26°C87 %755 мм4.7 м/с28 %
    06:00Ясно и безоблачно+24°C80 %755 мм4.7 м/с4 %
    09:00Ясно и безоблачно+28°C62 %757 мм7.9 м/с5 %
    12:00Ясно и безоблачно+31°C45 %755 мм7.6 м/с2 %
    15:00Практически безоблачно+30°C46 %753 мм7.6 м/с3 %
    18:00Ясно и безоблачно+27°C75 %754 мм5.5 м/с3 %
    21:00Ясно и безоблачно+27°C82 %756 мм4.4 м/с12 %
  • 21июля
    Воскресенье
    +23°
    +32°
    Ясно и безоблачно
    ВремяПогодаТемператураВлажностьДавлениеВетер, м/сВероятность осадков
    00:00Ясно и безоблачно+27°C85 %755 мм5.6 м/с38 %
    03:00Ясно и безоблачно+25°C73 %754 мм4.8 м/с24 %
    06:00Ясно и безоблачно+23°C78 %755 мм4.9 м/с4 %
    09:00Ясно и безоблачно+28°C59 %756 мм8.0 м/с5 %
    12:00Ясно и безоблачно+31°C44 %754 мм8.0 м/с6 %
    15:00Ясно и безоблачно+30°C54 %753 мм8.5 м/с3 %
    18:00Ясно и безоблачно+27°C73 %754 мм6.0 м/с4 %
    21:00Ясно и безоблачно+27°C85 %755 мм4.7 м/с12 %
  • 22июля
    Понедельник
    +23°
    +32°
    Ясно и безоблачно
    ВремяПогодаТемператураВлажностьДавлениеВетер, м/сВероятность осадков
    00:00Ясно и безоблачно+27°C83 %755 мм5.9 м/с30 %
    03:00Ясно и безоблачно+26°C82 %755 мм4.6 м/с27 %
    06:00Ясно и безоблачно+24°C78 %755 мм4.9 м/с9 %
    09:00Ясно и безоблачно+28°C57 %756 мм8.1 м/с6 %
    12:00Небольшая облачность+31°C42 %755 мм8.6 м/с5 %
    15:00Ясно и безоблачно+30°C52 %754 мм8.7 м/с5 %
    18:00Ясно и безоблачно+28°C75 %754 мм6.8 м/с4 %
    21:00Ясно и безоблачно+27°C85 %756 мм5.4 м/с3 %
Мы используем cookies
Соглашаюсь